<?xml version="1.0" encoding="UTF-8" standalone="no" ?>
<gpx xmlns="http://www.topografix.com/GPX/1/1" xmlns:xsi="http://www.w3.org/2001/XMLSchema-instance" xsi:schemaLocation="http://www.topografix.com/GPX/1/1 http://www.topografix.com/GPX/1/1/gpx.xsd" version="1.1" creator="VisuGPX - https://www.visugpx.com">
  <metadata>
    <name>xxx</name>
    <desc><![CDATA[x]]></desc>
  </metadata>
  <wpt lat="47.50603" lon="7.2799">
    <ele>476.6</ele>
    <name><![CDATA[x]]></name>
    <type><![CDATA[Generic]]></type>
  </wpt>
  <trk>
    <name><![CDATA[x]]></name>
    <trkseg>
      <trkpt lat="47.50603" lon="7.2799">
        <ele>476.6</ele>
        <time>2020-06-09T16:19:18Z</time>
      </trkpt>
      <trkpt lat="47.50603" lon="7.28">
        <ele>476.6</ele>
        <time>2020-06-09T16:19:25Z</time>
      </trkpt>
      <trkpt lat="47.50591" lon="7.27998">
        <ele>477.5</ele>
        <time>2020-06-09T16:19:39Z</time>
      </trkpt>
      <trkpt lat="47.50585" lon="7.27991">
        <ele>477.9</ele>
        <time>2020-06-09T16:19:52Z</time>
      </trkpt>
      <trkpt lat="47.5058" lon="7.2795">
        <ele>480.4</ele>
        <time>2020-06-09T16:20:00Z</time>
      </trkpt>
      <trkpt lat="47.50575" lon="7.27929">
        <ele>481.1</ele>
        <time>2020-06-09T16:20:03Z</time>
      </trkpt>
      <trkpt lat="47.50549" lon="7.27863">
        <ele>482.2</ele>
        <time>2020-06-09T16:20:11Z</time>
      </trkpt>
      <trkpt lat="47.50533" lon="7.27843">
        <ele>483.8</ele>
        <time>2020-06-09T16:20:15Z</time>
      </trkpt>
      <trkpt lat="47.50504" lon="7.2784">
        <ele>487.7</ele>
        <time>2020-06-09T16:20:24Z</time>
      </trkpt>
      <trkpt lat="47.50469" lon="7.27821">
        <ele>491.4</ele>
        <time>2020-06-09T16:20:33Z</time>
      </trkpt>
      <trkpt lat="47.50449" lon="7.27817">
        <ele>492.5</ele>
        <time>2020-06-09T16:20:40Z</time>
      </trkpt>
      <trkpt lat="47.50411" lon="7.27813">
        <ele>493.7</ele>
        <time>2020-06-09T16:20:50Z</time>
      </trkpt>
      <trkpt lat="47.50378" lon="7.27803">
        <ele>494.6</ele>
        <time>2020-06-09T16:21:10Z</time>
      </trkpt>
      <trkpt lat="47.50366" lon="7.27793">
        <ele>494.8</ele>
        <time>2020-06-09T16:21:20Z</time>
      </trkpt>
      <trkpt lat="47.50342" lon="7.27795">
        <ele>496.6</ele>
        <time>2020-06-09T16:21:37Z</time>
      </trkpt>
      <trkpt lat="47.50338" lon="7.27793">
        <ele>496.8</ele>
        <time>2020-06-09T16:21:52Z</time>
      </trkpt>
      <trkpt lat="47.50323" lon="7.27779">
        <ele>496.9</ele>
        <time>2020-06-09T16:22:05Z</time>
      </trkpt>
      <trkpt lat="47.50315" lon="7.27777">
        <ele>497.3</ele>
        <time>2020-06-09T16:22:23Z</time>
      </trkpt>
      <trkpt lat="47.50255" lon="7.27746">
        <ele>502.3</ele>
        <time>2020-06-09T16:22:33Z</time>
      </trkpt>
      <trkpt lat="47.50162" lon="7.2771">
        <ele>512.2</ele>
        <time>2020-06-09T16:22:37Z</time>
      </trkpt>
      <trkpt lat="47.5008" lon="7.27662">
        <ele>520.4</ele>
        <time>2020-06-09T16:22:47Z</time>
      </trkpt>
      <trkpt lat="47.50029" lon="7.27638">
        <ele>525.9</ele>
        <time>2020-06-09T16:23:01Z</time>
      </trkpt>
      <trkpt lat="47.49987" lon="7.27625">
        <ele>532.1</ele>
        <time>2020-06-09T16:23:14Z</time>
      </trkpt>
      <trkpt lat="47.49967" lon="7.27611">
        <ele>534.8</ele>
        <time>2020-06-09T16:23:27Z</time>
      </trkpt>
      <trkpt lat="47.49947" lon="7.27588">
        <ele>536.8</ele>
        <time>2020-06-09T16:23:33Z</time>
      </trkpt>
      <trkpt lat="47.49927" lon="7.27556">
        <ele>539.6</ele>
        <time>2020-06-09T16:23:50Z</time>
      </trkpt>
      <trkpt lat="47.49923" lon="7.27544">
        <ele>541</ele>
        <time>2020-06-09T16:23:54Z</time>
      </trkpt>
      <trkpt lat="47.49923" lon="7.27531">
        <ele>541.8</ele>
        <time>2020-06-09T16:24:13Z</time>
      </trkpt>
      <trkpt lat="47.49932" lon="7.27475">
        <ele>545.4</ele>
        <time>2020-06-09T16:24:15Z</time>
      </trkpt>
      <trkpt lat="47.49948" lon="7.27403">
        <ele>550.7</ele>
        <time>2020-06-09T16:24:30Z</time>
      </trkpt>
      <trkpt lat="47.49951" lon="7.27379">
        <ele>552.4</ele>
        <time>2020-06-09T16:24:32Z</time>
      </trkpt>
      <trkpt lat="47.49951" lon="7.27377">
        <ele>552.5</ele>
        <time>2020-06-09T16:24:47Z</time>
      </trkpt>
      <trkpt lat="47.49952" lon="7.27359">
        <ele>553.4</ele>
        <time>2020-06-09T16:24:55Z</time>
      </trkpt>
      <trkpt lat="47.49953" lon="7.27297">
        <ele>557</ele>
        <time>2020-06-09T16:25:10Z</time>
      </trkpt>
      <trkpt lat="47.49949" lon="7.27214">
        <ele>561.1</ele>
        <time>2020-06-09T16:25:19Z</time>
      </trkpt>
      <trkpt lat="47.4994" lon="7.27153">
        <ele>566.3</ele>
        <time>2020-06-09T16:25:30Z</time>
      </trkpt>
      <trkpt lat="47.49932" lon="7.27073">
        <ele>571.3</ele>
        <time>2020-06-09T16:25:48Z</time>
      </trkpt>
      <trkpt lat="47.4992" lon="7.27031">
        <ele>574.2</ele>
        <time>2020-06-09T16:26:05Z</time>
      </trkpt>
      <trkpt lat="47.49907" lon="7.27002">
        <ele>577.7</ele>
        <time>2020-06-09T16:26:12Z</time>
      </trkpt>
      <trkpt lat="47.49847" lon="7.26887">
        <ele>586.9</ele>
        <time>2020-06-09T16:26:31Z</time>
      </trkpt>
      <trkpt lat="47.49816" lon="7.26838">
        <ele>591.3</ele>
        <time>2020-06-09T16:26:36Z</time>
      </trkpt>
      <trkpt lat="47.49783" lon="7.26779">
        <ele>595.6</ele>
        <time>2020-06-09T16:26:54Z</time>
      </trkpt>
      <trkpt lat="47.49768" lon="7.26782">
        <ele>601.6</ele>
        <time>2020-06-09T16:27:11Z</time>
      </trkpt>
      <trkpt lat="47.49764" lon="7.26801">
        <ele>606.4</ele>
        <time>2020-06-09T16:27:20Z</time>
      </trkpt>
      <trkpt lat="47.49777" lon="7.26875">
        <ele>610.4</ele>
        <time>2020-06-09T16:27:23Z</time>
      </trkpt>
      <trkpt lat="47.49791" lon="7.26943">
        <ele>611</ele>
        <time>2020-06-09T16:27:31Z</time>
      </trkpt>
      <trkpt lat="47.49794" lon="7.27048">
        <ele>618.7</ele>
        <time>2020-06-09T16:27:33Z</time>
      </trkpt>
      <trkpt lat="47.498" lon="7.27134">
        <ele>627.5</ele>
        <time>2020-06-09T16:27:45Z</time>
      </trkpt>
      <trkpt lat="47.49809" lon="7.27198">
        <ele>632.3</ele>
        <time>2020-06-09T16:27:55Z</time>
      </trkpt>
      <trkpt lat="47.49804" lon="7.27233">
        <ele>636.6</ele>
        <time>2020-06-09T16:28:09Z</time>
      </trkpt>
      <trkpt lat="47.49802" lon="7.27234">
        <ele>637.1</ele>
        <time>2020-06-09T16:28:19Z</time>
      </trkpt>
      <trkpt lat="47.49792" lon="7.27239">
        <ele>639.1</ele>
        <time>2020-06-09T16:28:30Z</time>
      </trkpt>
      <trkpt lat="47.4977" lon="7.27263">
        <ele>640.9</ele>
        <time>2020-06-09T16:28:49Z</time>
      </trkpt>
      <trkpt lat="47.49737" lon="7.27315">
        <ele>632.5</ele>
        <time>2020-06-09T16:29:01Z</time>
      </trkpt>
      <trkpt lat="47.49723" lon="7.27316">
        <ele>629.9</ele>
        <time>2020-06-09T16:29:19Z</time>
      </trkpt>
      <trkpt lat="47.49704" lon="7.27306">
        <ele>625.3</ele>
        <time>2020-06-09T16:29:22Z</time>
      </trkpt>
      <trkpt lat="47.49658" lon="7.27261">
        <ele>615.8</ele>
        <time>2020-06-09T16:29:39Z</time>
      </trkpt>
      <trkpt lat="47.49639" lon="7.27247">
        <ele>610.7</ele>
        <time>2020-06-09T16:29:51Z</time>
      </trkpt>
      <trkpt lat="47.49616" lon="7.27237">
        <ele>605.4</ele>
        <time>2020-06-09T16:29:59Z</time>
      </trkpt>
      <trkpt lat="47.49603" lon="7.27237">
        <ele>602.6</ele>
        <time>2020-06-09T16:30:13Z</time>
      </trkpt>
      <trkpt lat="47.49595" lon="7.27244">
        <ele>600.4</ele>
        <time>2020-06-09T16:30:31Z</time>
      </trkpt>
      <trkpt lat="47.49602" lon="7.27272">
        <ele>599.8</ele>
        <time>2020-06-09T16:30:47Z</time>
      </trkpt>
      <trkpt lat="47.49607" lon="7.27303">
        <ele>597.7</ele>
        <time>2020-06-09T16:30:55Z</time>
      </trkpt>
      <trkpt lat="47.49608" lon="7.27329">
        <ele>595.8</ele>
        <time>2020-06-09T16:31:11Z</time>
      </trkpt>
      <trkpt lat="47.49632" lon="7.27408">
        <ele>591.4</ele>
        <time>2020-06-09T16:31:28Z</time>
      </trkpt>
      <trkpt lat="47.49643" lon="7.27438">
        <ele>590.3</ele>
        <time>2020-06-09T16:31:31Z</time>
      </trkpt>
      <trkpt lat="47.49657" lon="7.2747">
        <ele>588.8</ele>
        <time>2020-06-09T16:31:41Z</time>
      </trkpt>
      <trkpt lat="47.49672" lon="7.275">
        <ele>585.8</ele>
        <time>2020-06-09T16:31:56Z</time>
      </trkpt>
      <trkpt lat="47.49665" lon="7.27506">
        <ele>585.9</ele>
        <time>2020-06-09T16:32:15Z</time>
      </trkpt>
      <trkpt lat="47.4959" lon="7.2754">
        <ele>594.5</ele>
        <time>2020-06-09T16:32:25Z</time>
      </trkpt>
      <trkpt lat="47.49613" lon="7.27603">
        <ele>599.2</ele>
        <time>2020-06-09T16:32:29Z</time>
      </trkpt>
      <trkpt lat="47.4966" lon="7.27716">
        <ele>607.4</ele>
        <time>2020-06-09T16:32:39Z</time>
      </trkpt>
      <trkpt lat="47.49696" lon="7.27783">
        <ele>610.4</ele>
        <time>2020-06-09T16:32:41Z</time>
      </trkpt>
      <trkpt lat="47.49718" lon="7.27838">
        <ele>613.3</ele>
        <time>2020-06-09T16:32:48Z</time>
      </trkpt>
      <trkpt lat="47.49734" lon="7.27887">
        <ele>614.5</ele>
        <time>2020-06-09T16:33:06Z</time>
      </trkpt>
      <trkpt lat="47.49742" lon="7.27935">
        <ele>617</ele>
        <time>2020-06-09T16:33:16Z</time>
      </trkpt>
      <trkpt lat="47.49769" lon="7.28064">
        <ele>627.6</ele>
        <time>2020-06-09T16:33:22Z</time>
      </trkpt>
      <trkpt lat="47.49769" lon="7.28085">
        <ele>630.2</ele>
        <time>2020-06-09T16:33:39Z</time>
      </trkpt>
      <trkpt lat="47.49767" lon="7.281">
        <ele>632.4</ele>
        <time>2020-06-09T16:33:58Z</time>
      </trkpt>
      <trkpt lat="47.49746" lon="7.28149">
        <ele>638.5</ele>
        <time>2020-06-09T16:34:17Z</time>
      </trkpt>
      <trkpt lat="47.4969" lon="7.28305">
        <ele>637</ele>
        <time>2020-06-09T16:34:35Z</time>
      </trkpt>
      <trkpt lat="47.49671" lon="7.28345">
        <ele>635.6</ele>
        <time>2020-06-09T16:34:47Z</time>
      </trkpt>
      <trkpt lat="47.49667" lon="7.28363">
        <ele>635</ele>
        <time>2020-06-09T16:34:58Z</time>
      </trkpt>
      <trkpt lat="47.49661" lon="7.28444">
        <ele>634.8</ele>
        <time>2020-06-09T16:35:08Z</time>
      </trkpt>
      <trkpt lat="47.49665" lon="7.28476">
        <ele>634.5</ele>
        <time>2020-06-09T16:35:12Z</time>
      </trkpt>
      <trkpt lat="47.49663" lon="7.28519">
        <ele>636.3</ele>
        <time>2020-06-09T16:35:14Z</time>
      </trkpt>
      <trkpt lat="47.49655" lon="7.28565">
        <ele>641</ele>
        <time>2020-06-09T16:35:17Z</time>
      </trkpt>
      <trkpt lat="47.49653" lon="7.28585">
        <ele>643.3</ele>
        <time>2020-06-09T16:35:24Z</time>
      </trkpt>
      <trkpt lat="47.49687" lon="7.2868">
        <ele>653.6</ele>
        <time>2020-06-09T16:35:41Z</time>
      </trkpt>
      <trkpt lat="47.49687" lon="7.28695">
        <ele>655.6</ele>
        <time>2020-06-09T16:35:52Z</time>
      </trkpt>
      <trkpt lat="47.49683" lon="7.28717">
        <ele>657.9</ele>
        <time>2020-06-09T16:36:05Z</time>
      </trkpt>
      <trkpt lat="47.49669" lon="7.28748">
        <ele>660.8</ele>
        <time>2020-06-09T16:36:15Z</time>
      </trkpt>
      <trkpt lat="47.49652" lon="7.28803">
        <ele>659.2</ele>
        <time>2020-06-09T16:36:17Z</time>
      </trkpt>
      <trkpt lat="47.49631" lon="7.28879">
        <ele>658.2</ele>
        <time>2020-06-09T16:36:31Z</time>
      </trkpt>
      <trkpt lat="47.49628" lon="7.28892">
        <ele>658</ele>
        <time>2020-06-09T16:36:43Z</time>
      </trkpt>
      <trkpt lat="47.49614" lon="7.28911">
        <ele>657.3</ele>
        <time>2020-06-09T16:36:46Z</time>
      </trkpt>
      <trkpt lat="47.4956" lon="7.28917">
        <ele>654.9</ele>
        <time>2020-06-09T16:36:51Z</time>
      </trkpt>
      <trkpt lat="47.49537" lon="7.2893">
        <ele>654.4</ele>
        <time>2020-06-09T16:37:11Z</time>
      </trkpt>
      <trkpt lat="47.49509" lon="7.28958">
        <ele>651.9</ele>
        <time>2020-06-09T16:37:24Z</time>
      </trkpt>
      <trkpt lat="47.49494" lon="7.28991">
        <ele>649.4</ele>
        <time>2020-06-09T16:37:39Z</time>
      </trkpt>
      <trkpt lat="47.49461" lon="7.29135">
        <ele>639.7</ele>
        <time>2020-06-09T16:37:52Z</time>
      </trkpt>
      <trkpt lat="47.4942" lon="7.29201">
        <ele>633.5</ele>
        <time>2020-06-09T16:37:55Z</time>
      </trkpt>
      <trkpt lat="47.49371" lon="7.29259">
        <ele>629.3</ele>
        <time>2020-06-09T16:38:15Z</time>
      </trkpt>
      <trkpt lat="47.49305" lon="7.29299">
        <ele>619.7</ele>
        <time>2020-06-09T16:38:24Z</time>
      </trkpt>
      <trkpt lat="47.49257" lon="7.29346">
        <ele>618.2</ele>
        <time>2020-06-09T16:38:35Z</time>
      </trkpt>
      <trkpt lat="47.49214" lon="7.29398">
        <ele>616</ele>
        <time>2020-06-09T16:38:46Z</time>
      </trkpt>
      <trkpt lat="47.49222" lon="7.29423">
        <ele>614.3</ele>
        <time>2020-06-09T16:39:02Z</time>
      </trkpt>
      <trkpt lat="47.49214" lon="7.29398">
        <ele>616</ele>
        <time>2020-06-09T16:39:05Z</time>
      </trkpt>
      <trkpt lat="47.49171" lon="7.29461">
        <ele>612.2</ele>
        <time>2020-06-09T16:39:19Z</time>
      </trkpt>
      <trkpt lat="47.49159" lon="7.29485">
        <ele>611</ele>
        <time>2020-06-09T16:39:27Z</time>
      </trkpt>
      <trkpt lat="47.49145" lon="7.29525">
        <ele>609.3</ele>
        <time>2020-06-09T16:39:36Z</time>
      </trkpt>
      <trkpt lat="47.49123" lon="7.2956">
        <ele>609.6</ele>
        <time>2020-06-09T16:39:54Z</time>
      </trkpt>
      <trkpt lat="47.49117" lon="7.29567">
        <ele>610.3</ele>
        <time>2020-06-09T16:40:02Z</time>
      </trkpt>
      <trkpt lat="47.49102" lon="7.29581">
        <ele>611.9</ele>
        <time>2020-06-09T16:40:04Z</time>
      </trkpt>
      <trkpt lat="47.49084" lon="7.29592">
        <ele>613.6</ele>
        <time>2020-06-09T16:40:10Z</time>
      </trkpt>
      <trkpt lat="47.49038" lon="7.2964">
        <ele>617.7</ele>
        <time>2020-06-09T16:40:29Z</time>
      </trkpt>
      <trkpt lat="47.48966" lon="7.29745">
        <ele>628.7</ele>
        <time>2020-06-09T16:40:39Z</time>
      </trkpt>
      <trkpt lat="47.4895" lon="7.29773">
        <ele>632.3</ele>
        <time>2020-06-09T16:40:46Z</time>
      </trkpt>
      <trkpt lat="47.48937" lon="7.29788">
        <ele>633.1</ele>
        <time>2020-06-09T16:40:51Z</time>
      </trkpt>
      <trkpt lat="47.48933" lon="7.298">
        <ele>634.1</ele>
        <time>2020-06-09T16:40:54Z</time>
      </trkpt>
      <trkpt lat="47.48933" lon="7.29811">
        <ele>634.7</ele>
        <time>2020-06-09T16:40:57Z</time>
      </trkpt>
      <trkpt lat="47.48949" lon="7.2982">
        <ele>637.5</ele>
        <time>2020-06-09T16:41:09Z</time>
      </trkpt>
      <trkpt lat="47.48933" lon="7.29811">
        <ele>634.7</ele>
        <time>2020-06-09T16:41:29Z</time>
      </trkpt>
      <trkpt lat="47.48934" lon="7.29825">
        <ele>634.4</ele>
        <time>2020-06-09T16:41:36Z</time>
      </trkpt>
      <trkpt lat="47.48942" lon="7.29862">
        <ele>634.5</ele>
        <time>2020-06-09T16:41:43Z</time>
      </trkpt>
      <trkpt lat="47.4899" lon="7.29999">
        <ele>636.8</ele>
        <time>2020-06-09T16:41:53Z</time>
      </trkpt>
      <trkpt lat="47.49016" lon="7.30091">
        <ele>636.7</ele>
        <time>2020-06-09T16:42:09Z</time>
      </trkpt>
      <trkpt lat="47.4903" lon="7.30151">
        <ele>638.4</ele>
        <time>2020-06-09T16:42:22Z</time>
      </trkpt>
      <trkpt lat="47.49054" lon="7.30244">
        <ele>637.5</ele>
        <time>2020-06-09T16:42:30Z</time>
      </trkpt>
      <trkpt lat="47.49063" lon="7.30269">
        <ele>636.4</ele>
        <time>2020-06-09T16:42:49Z</time>
      </trkpt>
      <trkpt lat="47.49088" lon="7.30311">
        <ele>633</ele>
        <time>2020-06-09T16:43:05Z</time>
      </trkpt>
      <trkpt lat="47.49116" lon="7.30364">
        <ele>630</ele>
        <time>2020-06-09T16:43:23Z</time>
      </trkpt>
      <trkpt lat="47.49132" lon="7.30388">
        <ele>629.1</ele>
        <time>2020-06-09T16:43:25Z</time>
      </trkpt>
      <trkpt lat="47.49151" lon="7.30409">
        <ele>629.1</ele>
        <time>2020-06-09T16:43:33Z</time>
      </trkpt>
      <trkpt lat="47.49168" lon="7.30447">
        <ele>627.7</ele>
        <time>2020-06-09T16:43:49Z</time>
      </trkpt>
      <trkpt lat="47.49178" lon="7.30482">
        <ele>625.8</ele>
        <time>2020-06-09T16:44:00Z</time>
      </trkpt>
      <trkpt lat="47.49177" lon="7.3051">
        <ele>624.3</ele>
        <time>2020-06-09T16:44:13Z</time>
      </trkpt>
      <trkpt lat="47.4914" lon="7.3072">
        <ele>613.2</ele>
        <time>2020-06-09T16:44:22Z</time>
      </trkpt>
      <trkpt lat="47.49133" lon="7.30815">
        <ele>609.5</ele>
        <time>2020-06-09T16:44:40Z</time>
      </trkpt>
      <trkpt lat="47.49135" lon="7.30939">
        <ele>599.1</ele>
        <time>2020-06-09T16:44:57Z</time>
      </trkpt>
      <trkpt lat="47.49133" lon="7.3095">
        <ele>597.8</ele>
        <time>2020-06-09T16:45:02Z</time>
      </trkpt>
      <trkpt lat="47.49145" lon="7.30956">
        <ele>598.8</ele>
        <time>2020-06-09T16:45:08Z</time>
      </trkpt>
      <trkpt lat="47.49133" lon="7.3095">
        <ele>597.8</ele>
        <time>2020-06-09T16:45:22Z</time>
      </trkpt>
      <trkpt lat="47.49125" lon="7.30962">
        <ele>595.8</ele>
        <time>2020-06-09T16:45:37Z</time>
      </trkpt>
      <trkpt lat="47.49106" lon="7.3098">
        <ele>591.5</ele>
        <time>2020-06-09T16:45:50Z</time>
      </trkpt>
      <trkpt lat="47.49078" lon="7.31004">
        <ele>586.3</ele>
        <time>2020-06-09T16:46:03Z</time>
      </trkpt>
      <trkpt lat="47.49027" lon="7.31057">
        <ele>576.9</ele>
        <time>2020-06-09T16:46:12Z</time>
      </trkpt>
      <trkpt lat="47.49005" lon="7.31083">
        <ele>572.6</ele>
        <time>2020-06-09T16:46:26Z</time>
      </trkpt>
      <trkpt lat="47.4898" lon="7.31106">
        <ele>569.6</ele>
        <time>2020-06-09T16:46:43Z</time>
      </trkpt>
      <trkpt lat="47.489" lon="7.31159">
        <ele>562.5</ele>
        <time>2020-06-09T16:46:55Z</time>
      </trkpt>
      <trkpt lat="47.48868" lon="7.31173">
        <ele>562.2</ele>
        <time>2020-06-09T16:46:59Z</time>
      </trkpt>
      <trkpt lat="47.48871" lon="7.31209">
        <ele>562.1</ele>
        <time>2020-06-09T16:47:19Z</time>
      </trkpt>
      <trkpt lat="47.48868" lon="7.31173">
        <ele>562.2</ele>
        <time>2020-06-09T16:47:28Z</time>
      </trkpt>
      <trkpt lat="47.48861" lon="7.31171">
        <ele>562.2</ele>
        <time>2020-06-09T16:47:42Z</time>
      </trkpt>
      <trkpt lat="47.48851" lon="7.31186">
        <ele>564.1</ele>
        <time>2020-06-09T16:48:00Z</time>
      </trkpt>
      <trkpt lat="47.48837" lon="7.31277">
        <ele>568.6</ele>
        <time>2020-06-09T16:48:09Z</time>
      </trkpt>
      <trkpt lat="47.48834" lon="7.31363">
        <ele>571.9</ele>
        <time>2020-06-09T16:48:20Z</time>
      </trkpt>
      <trkpt lat="47.4882" lon="7.31479">
        <ele>574.8</ele>
        <time>2020-06-09T16:48:26Z</time>
      </trkpt>
      <trkpt lat="47.48814" lon="7.31584">
        <ele>580.8</ele>
        <time>2020-06-09T16:48:29Z</time>
      </trkpt>
      <trkpt lat="47.48809" lon="7.31615">
        <ele>582.6</ele>
        <time>2020-06-09T16:48:47Z</time>
      </trkpt>
      <trkpt lat="47.48799" lon="7.31709">
        <ele>584.3</ele>
        <time>2020-06-09T16:48:59Z</time>
      </trkpt>
      <trkpt lat="47.48777" lon="7.31794">
        <ele>581</ele>
        <time>2020-06-09T16:49:01Z</time>
      </trkpt>
      <trkpt lat="47.48779" lon="7.31842">
        <ele>580.1</ele>
        <time>2020-06-09T16:49:09Z</time>
      </trkpt>
      <trkpt lat="47.48786" lon="7.31875">
        <ele>580.8</ele>
        <time>2020-06-09T16:49:13Z</time>
      </trkpt>
      <trkpt lat="47.48792" lon="7.319">
        <ele>581.9</ele>
        <time>2020-06-09T16:49:22Z</time>
      </trkpt>
      <trkpt lat="47.48789" lon="7.31999">
        <ele>590.3</ele>
        <time>2020-06-09T16:49:36Z</time>
      </trkpt>
      <trkpt lat="47.48785" lon="7.32059">
        <ele>596.1</ele>
        <time>2020-06-09T16:49:52Z</time>
      </trkpt>
      <trkpt lat="47.48772" lon="7.32147">
        <ele>600.9</ele>
        <time>2020-06-09T16:49:59Z</time>
      </trkpt>
      <trkpt lat="47.48758" lon="7.32216">
        <ele>599.9</ele>
        <time>2020-06-09T16:50:13Z</time>
      </trkpt>
      <trkpt lat="47.48753" lon="7.32223">
        <ele>599.7</ele>
        <time>2020-06-09T16:50:20Z</time>
      </trkpt>
      <trkpt lat="47.48714" lon="7.32266">
        <ele>596.9</ele>
        <time>2020-06-09T16:50:40Z</time>
      </trkpt>
      <trkpt lat="47.48703" lon="7.32287">
        <ele>595.2</ele>
        <time>2020-06-09T16:50:49Z</time>
      </trkpt>
      <trkpt lat="47.48695" lon="7.32307">
        <ele>594.1</ele>
        <time>2020-06-09T16:50:56Z</time>
      </trkpt>
      <trkpt lat="47.48679" lon="7.32401">
        <ele>595.6</ele>
        <time>2020-06-09T16:51:04Z</time>
      </trkpt>
      <trkpt lat="47.48672" lon="7.324">
        <ele>595.1</ele>
        <time>2020-06-09T16:51:15Z</time>
      </trkpt>
      <trkpt lat="47.48675" lon="7.32407">
        <ele>595.7</ele>
        <time>2020-06-09T16:51:32Z</time>
      </trkpt>
      <trkpt lat="47.48689" lon="7.32424">
        <ele>597.6</ele>
        <time>2020-06-09T16:51:41Z</time>
      </trkpt>
      <trkpt lat="47.48696" lon="7.32438">
        <ele>599.3</ele>
        <time>2020-06-09T16:51:48Z</time>
      </trkpt>
      <trkpt lat="47.48701" lon="7.32478">
        <ele>603.5</ele>
        <time>2020-06-09T16:51:59Z</time>
      </trkpt>
      <trkpt lat="47.48699" lon="7.32504">
        <ele>606.3</ele>
        <time>2020-06-09T16:52:07Z</time>
      </trkpt>
      <trkpt lat="47.48691" lon="7.32527">
        <ele>608.9</ele>
        <time>2020-06-09T16:52:25Z</time>
      </trkpt>
      <trkpt lat="47.48691" lon="7.32533">
        <ele>609.6</ele>
        <time>2020-06-09T16:52:43Z</time>
      </trkpt>
      <trkpt lat="47.48698" lon="7.3254">
        <ele>610.2</ele>
        <time>2020-06-09T16:52:48Z</time>
      </trkpt>
      <trkpt lat="47.48743" lon="7.3258">
        <ele>610.8</ele>
        <time>2020-06-09T16:53:01Z</time>
      </trkpt>
      <trkpt lat="47.4877" lon="7.32611">
        <ele>609.4</ele>
        <time>2020-06-09T16:53:20Z</time>
      </trkpt>
      <trkpt lat="47.48797" lon="7.32648">
        <ele>608.1</ele>
        <time>2020-06-09T16:53:29Z</time>
      </trkpt>
      <trkpt lat="47.48827" lon="7.32683">
        <ele>606.1</ele>
        <time>2020-06-09T16:53:46Z</time>
      </trkpt>
      <trkpt lat="47.48886" lon="7.32737">
        <ele>600.4</ele>
        <time>2020-06-09T16:54:02Z</time>
      </trkpt>
      <trkpt lat="47.48923" lon="7.32767">
        <ele>597.9</ele>
        <time>2020-06-09T16:54:15Z</time>
      </trkpt>
      <trkpt lat="47.48953" lon="7.32786">
        <ele>596</ele>
        <time>2020-06-09T16:54:26Z</time>
      </trkpt>
      <trkpt lat="47.48982" lon="7.32799">
        <ele>595.4</ele>
        <time>2020-06-09T16:54:43Z</time>
      </trkpt>
      <trkpt lat="47.49012" lon="7.32809">
        <ele>595</ele>
        <time>2020-06-09T16:54:55Z</time>
      </trkpt>
      <trkpt lat="47.49033" lon="7.32813">
        <ele>594.7</ele>
        <time>2020-06-09T16:55:09Z</time>
      </trkpt>
      <trkpt lat="47.49039" lon="7.32888">
        <ele>604.9</ele>
        <time>2020-06-09T16:55:23Z</time>
      </trkpt>
      <trkpt lat="47.49042" lon="7.32904">
        <ele>605</ele>
        <time>2020-06-09T16:55:34Z</time>
      </trkpt>
      <trkpt lat="47.49062" lon="7.32912">
        <ele>605.6</ele>
        <time>2020-06-09T16:55:44Z</time>
      </trkpt>
      <trkpt lat="47.49066" lon="7.32928">
        <ele>605.2</ele>
        <time>2020-06-09T16:55:59Z</time>
      </trkpt>
      <trkpt lat="47.49071" lon="7.32938">
        <ele>604.7</ele>
        <time>2020-06-09T16:56:13Z</time>
      </trkpt>
      <trkpt lat="47.4909" lon="7.32969">
        <ele>603.1</ele>
        <time>2020-06-09T16:56:19Z</time>
      </trkpt>
      <trkpt lat="47.49117" lon="7.33003">
        <ele>600.8</ele>
        <time>2020-06-09T16:56:22Z</time>
      </trkpt>
      <trkpt lat="47.49214" lon="7.33135">
        <ele>587.2</ele>
        <time>2020-06-09T16:56:33Z</time>
      </trkpt>
      <trkpt lat="47.49227" lon="7.33155">
        <ele>584.7</ele>
        <time>2020-06-09T16:56:35Z</time>
      </trkpt>
      <trkpt lat="47.49258" lon="7.33208">
        <ele>580.2</ele>
        <time>2020-06-09T16:56:53Z</time>
      </trkpt>
      <trkpt lat="47.49278" lon="7.33252">
        <ele>574.7</ele>
        <time>2020-06-09T16:57:01Z</time>
      </trkpt>
      <trkpt lat="47.49295" lon="7.33299">
        <ele>571.8</ele>
        <time>2020-06-09T16:57:10Z</time>
      </trkpt>
      <trkpt lat="47.49324" lon="7.33393">
        <ele>563.8</ele>
        <time>2020-06-09T16:57:16Z</time>
      </trkpt>
      <trkpt lat="47.49338" lon="7.33423">
        <ele>562.5</ele>
        <time>2020-06-09T16:57:35Z</time>
      </trkpt>
      <trkpt lat="47.49361" lon="7.3348">
        <ele>559.8</ele>
        <time>2020-06-09T16:57:39Z</time>
      </trkpt>
      <trkpt lat="47.49385" lon="7.33534">
        <ele>557.8</ele>
        <time>2020-06-09T16:57:58Z</time>
      </trkpt>
      <trkpt lat="47.49419" lon="7.33538">
        <ele>567.8</ele>
        <time>2020-06-09T16:58:14Z</time>
      </trkpt>
      <trkpt lat="47.49449" lon="7.33525">
        <ele>566.7</ele>
        <time>2020-06-09T16:58:30Z</time>
      </trkpt>
      <trkpt lat="47.4947" lon="7.33497">
        <ele>574.3</ele>
        <time>2020-06-09T16:58:42Z</time>
      </trkpt>
      <trkpt lat="47.49471" lon="7.3349">
        <ele>576.8</ele>
        <time>2020-06-09T16:58:50Z</time>
      </trkpt>
      <trkpt lat="47.49478" lon="7.33485">
        <ele>578.5</ele>
        <time>2020-06-09T16:59:00Z</time>
      </trkpt>
      <trkpt lat="47.49487" lon="7.33486">
        <ele>577.5</ele>
        <time>2020-06-09T16:59:17Z</time>
      </trkpt>
      <trkpt lat="47.49499" lon="7.33479">
        <ele>578.2</ele>
        <time>2020-06-09T16:59:34Z</time>
      </trkpt>
      <trkpt lat="47.49509" lon="7.33482">
        <ele>574.5</ele>
        <time>2020-06-09T16:59:53Z</time>
      </trkpt>
      <trkpt lat="47.4952" lon="7.33476">
        <ele>572.7</ele>
        <time>2020-06-09T17:00:05Z</time>
      </trkpt>
      <trkpt lat="47.4953" lon="7.33466">
        <ele>572.9</ele>
        <time>2020-06-09T17:00:12Z</time>
      </trkpt>
      <trkpt lat="47.49532" lon="7.33455">
        <ele>574.7</ele>
        <time>2020-06-09T17:00:17Z</time>
      </trkpt>
      <trkpt lat="47.49531" lon="7.33427">
        <ele>577.7</ele>
        <time>2020-06-09T17:00:28Z</time>
      </trkpt>
      <trkpt lat="47.49518" lon="7.3336">
        <ele>585</ele>
        <time>2020-06-09T17:00:48Z</time>
      </trkpt>
      <trkpt lat="47.49508" lon="7.33325">
        <ele>588.8</ele>
        <time>2020-06-09T17:01:08Z</time>
      </trkpt>
      <trkpt lat="47.49504" lon="7.33363">
        <ele>593.8</ele>
        <time>2020-06-09T17:01:24Z</time>
      </trkpt>
      <trkpt lat="47.49503" lon="7.33424">
        <ele>595.9</ele>
        <time>2020-06-09T17:01:43Z</time>
      </trkpt>
      <trkpt lat="47.49492" lon="7.33447">
        <ele>596.9</ele>
        <time>2020-06-09T17:01:48Z</time>
      </trkpt>
      <trkpt lat="47.49474" lon="7.33362">
        <ele>604.4</ele>
        <time>2020-06-09T17:01:52Z</time>
      </trkpt>
      <trkpt lat="47.4942" lon="7.33067">
        <ele>619.7</ele>
        <time>2020-06-09T17:02:02Z</time>
      </trkpt>
      <trkpt lat="47.49394" lon="7.32974">
        <ele>626</ele>
        <time>2020-06-09T17:02:12Z</time>
      </trkpt>
      <trkpt lat="47.49388" lon="7.32917">
        <ele>627.1</ele>
        <time>2020-06-09T17:02:29Z</time>
      </trkpt>
      <trkpt lat="47.49385" lon="7.32884">
        <ele>627</ele>
        <time>2020-06-09T17:02:31Z</time>
      </trkpt>
      <trkpt lat="47.49387" lon="7.32848">
        <ele>623.2</ele>
        <time>2020-06-09T17:02:47Z</time>
      </trkpt>
      <trkpt lat="47.49377" lon="7.32788">
        <ele>621.2</ele>
        <time>2020-06-09T17:02:51Z</time>
      </trkpt>
      <trkpt lat="47.49322" lon="7.32718">
        <ele>631.6</ele>
        <time>2020-06-09T17:02:59Z</time>
      </trkpt>
      <trkpt lat="47.49311" lon="7.32712">
        <ele>631.6</ele>
        <time>2020-06-09T17:03:02Z</time>
      </trkpt>
      <trkpt lat="47.49322" lon="7.32718">
        <ele>631.6</ele>
        <time>2020-06-09T17:03:15Z</time>
      </trkpt>
      <trkpt lat="47.49356" lon="7.32761">
        <ele>624.3</ele>
        <time>2020-06-09T17:03:33Z</time>
      </trkpt>
      <trkpt lat="47.49374" lon="7.32763">
        <ele>619.4</ele>
        <time>2020-06-09T17:03:48Z</time>
      </trkpt>
      <trkpt lat="47.49411" lon="7.32752">
        <ele>611.2</ele>
        <time>2020-06-09T17:03:56Z</time>
      </trkpt>
      <trkpt lat="47.49414" lon="7.32712">
        <ele>606.1</ele>
        <time>2020-06-09T17:04:02Z</time>
      </trkpt>
      <trkpt lat="47.494" lon="7.32636">
        <ele>592.6</ele>
        <time>2020-06-09T17:04:11Z</time>
      </trkpt>
      <trkpt lat="47.49396" lon="7.32522">
        <ele>584.3</ele>
        <time>2020-06-09T17:04:29Z</time>
      </trkpt>
      <trkpt lat="47.49388" lon="7.32476">
        <ele>592.8</ele>
        <time>2020-06-09T17:04:42Z</time>
      </trkpt>
      <trkpt lat="47.4939" lon="7.32438">
        <ele>591.7</ele>
        <time>2020-06-09T17:04:52Z</time>
      </trkpt>
      <trkpt lat="47.49402" lon="7.32356">
        <ele>576.3</ele>
        <time>2020-06-09T17:05:08Z</time>
      </trkpt>
      <trkpt lat="47.49401" lon="7.32334">
        <ele>572.9</ele>
        <time>2020-06-09T17:05:16Z</time>
      </trkpt>
      <trkpt lat="47.49394" lon="7.3232">
        <ele>571.5</ele>
        <time>2020-06-09T17:05:26Z</time>
      </trkpt>
      <trkpt lat="47.49396" lon="7.32316">
        <ele>571.4</ele>
        <time>2020-06-09T17:05:46Z</time>
      </trkpt>
      <trkpt lat="47.49417" lon="7.32294">
        <ele>572.2</ele>
        <time>2020-06-09T17:06:06Z</time>
      </trkpt>
      <trkpt lat="47.49415" lon="7.3227">
        <ele>568.2</ele>
        <time>2020-06-09T17:06:19Z</time>
      </trkpt>
      <trkpt lat="47.49418" lon="7.32269">
        <ele>568.7</ele>
        <time>2020-06-09T17:06:21Z</time>
      </trkpt>
      <trkpt lat="47.49428" lon="7.3228">
        <ele>565.7</ele>
        <time>2020-06-09T17:06:41Z</time>
      </trkpt>
      <trkpt lat="47.49431" lon="7.3226">
        <ele>562.1</ele>
        <time>2020-06-09T17:06:52Z</time>
      </trkpt>
      <trkpt lat="47.49437" lon="7.32218">
        <ele>554.8</ele>
        <time>2020-06-09T17:07:09Z</time>
      </trkpt>
      <trkpt lat="47.49436" lon="7.32201">
        <ele>551.8</ele>
        <time>2020-06-09T17:07:12Z</time>
      </trkpt>
      <trkpt lat="47.49433" lon="7.32191">
        <ele>549.6</ele>
        <time>2020-06-09T17:07:27Z</time>
      </trkpt>
      <trkpt lat="47.49427" lon="7.32196">
        <ele>549.9</ele>
        <time>2020-06-09T17:07:41Z</time>
      </trkpt>
      <trkpt lat="47.49419" lon="7.32214">
        <ele>554.2</ele>
        <time>2020-06-09T17:08:01Z</time>
      </trkpt>
      <trkpt lat="47.49396" lon="7.32221">
        <ele>547.7</ele>
        <time>2020-06-09T17:08:03Z</time>
      </trkpt>
      <trkpt lat="47.49373" lon="7.32263">
        <ele>541.5</ele>
        <time>2020-06-09T17:08:17Z</time>
      </trkpt>
      <trkpt lat="47.49367" lon="7.32264">
        <ele>537.8</ele>
        <time>2020-06-09T17:08:20Z</time>
      </trkpt>
      <trkpt lat="47.49376" lon="7.32228">
        <ele>536.6</ele>
        <time>2020-06-09T17:08:36Z</time>
      </trkpt>
      <trkpt lat="47.49373" lon="7.3223">
        <ele>534.5</ele>
        <time>2020-06-09T17:08:44Z</time>
      </trkpt>
      <trkpt lat="47.49366" lon="7.32245">
        <ele>532.3</ele>
        <time>2020-06-09T17:08:57Z</time>
      </trkpt>
      <trkpt lat="47.49363" lon="7.32246">
        <ele>530.6</ele>
        <time>2020-06-09T17:09:06Z</time>
      </trkpt>
      <trkpt lat="47.49378" lon="7.32158">
        <ele>523.7</ele>
        <time>2020-06-09T17:09:12Z</time>
      </trkpt>
      <trkpt lat="47.49396" lon="7.3214">
        <ele>523</ele>
        <time>2020-06-09T17:09:29Z</time>
      </trkpt>
      <trkpt lat="47.4937" lon="7.32084">
        <ele>521.8</ele>
        <time>2020-06-09T17:09:48Z</time>
      </trkpt>
      <trkpt lat="47.49366" lon="7.32063">
        <ele>524.2</ele>
        <time>2020-06-09T17:10:06Z</time>
      </trkpt>
      <trkpt lat="47.49372" lon="7.32032">
        <ele>525.8</ele>
        <time>2020-06-09T17:10:15Z</time>
      </trkpt>
      <trkpt lat="47.49416" lon="7.31964">
        <ele>526.5</ele>
        <time>2020-06-09T17:10:34Z</time>
      </trkpt>
      <trkpt lat="47.49431" lon="7.31934">
        <ele>533.5</ele>
        <time>2020-06-09T17:10:54Z</time>
      </trkpt>
      <trkpt lat="47.49436" lon="7.31928">
        <ele>533.8</ele>
        <time>2020-06-09T17:11:13Z</time>
      </trkpt>
      <trkpt lat="47.49449" lon="7.31916">
        <ele>535.6</ele>
        <time>2020-06-09T17:11:32Z</time>
      </trkpt>
      <trkpt lat="47.49444" lon="7.31908">
        <ele>539.1</ele>
        <time>2020-06-09T17:11:45Z</time>
      </trkpt>
      <trkpt lat="47.4943" lon="7.31905">
        <ele>544.6</ele>
        <time>2020-06-09T17:11:53Z</time>
      </trkpt>
      <trkpt lat="47.49448" lon="7.31841">
        <ele>552.3</ele>
        <time>2020-06-09T17:12:10Z</time>
      </trkpt>
      <trkpt lat="47.49462" lon="7.3181">
        <ele>553.1</ele>
        <time>2020-06-09T17:12:30Z</time>
      </trkpt>
      <trkpt lat="47.49466" lon="7.31788">
        <ele>553.8</ele>
        <time>2020-06-09T17:12:39Z</time>
      </trkpt>
      <trkpt lat="47.49464" lon="7.31741">
        <ele>560</ele>
        <time>2020-06-09T17:12:41Z</time>
      </trkpt>
      <trkpt lat="47.49458" lon="7.31718">
        <ele>564.5</ele>
        <time>2020-06-09T17:12:56Z</time>
      </trkpt>
      <trkpt lat="47.49449" lon="7.31715">
        <ele>568.9</ele>
        <time>2020-06-09T17:13:12Z</time>
      </trkpt>
      <trkpt lat="47.49437" lon="7.31722">
        <ele>573</ele>
        <time>2020-06-09T17:13:20Z</time>
      </trkpt>
      <trkpt lat="47.49428" lon="7.31737">
        <ele>576.3</ele>
        <time>2020-06-09T17:13:29Z</time>
      </trkpt>
      <trkpt lat="47.49412" lon="7.31724">
        <ele>578.8</ele>
        <time>2020-06-09T17:13:35Z</time>
      </trkpt>
      <trkpt lat="47.49407" lon="7.31738">
        <ele>580.2</ele>
        <time>2020-06-09T17:13:48Z</time>
      </trkpt>
      <trkpt lat="47.49407" lon="7.31752">
        <ele>581.4</ele>
        <time>2020-06-09T17:14:06Z</time>
      </trkpt>
      <trkpt lat="47.49398" lon="7.31769">
        <ele>582.2</ele>
        <time>2020-06-09T17:14:25Z</time>
      </trkpt>
      <trkpt lat="47.4939" lon="7.31778">
        <ele>585.6</ele>
        <time>2020-06-09T17:14:29Z</time>
      </trkpt>
      <trkpt lat="47.49383" lon="7.31791">
        <ele>586.7</ele>
        <time>2020-06-09T17:14:34Z</time>
      </trkpt>
      <trkpt lat="47.49369" lon="7.31835">
        <ele>593.8</ele>
        <time>2020-06-09T17:14:41Z</time>
      </trkpt>
      <trkpt lat="47.49383" lon="7.31791">
        <ele>586.7</ele>
        <time>2020-06-09T17:14:58Z</time>
      </trkpt>
      <trkpt lat="47.4939" lon="7.31778">
        <ele>585.6</ele>
        <time>2020-06-09T17:15:01Z</time>
      </trkpt>
      <trkpt lat="47.49398" lon="7.31769">
        <ele>582.2</ele>
        <time>2020-06-09T17:15:03Z</time>
      </trkpt>
      <trkpt lat="47.49407" lon="7.31752">
        <ele>581.4</ele>
        <time>2020-06-09T17:15:20Z</time>
      </trkpt>
      <trkpt lat="47.49407" lon="7.31738">
        <ele>580.2</ele>
        <time>2020-06-09T17:15:24Z</time>
      </trkpt>
      <trkpt lat="47.494" lon="7.31737">
        <ele>580.2</ele>
        <time>2020-06-09T17:15:42Z</time>
      </trkpt>
      <trkpt lat="47.49394" lon="7.31732">
        <ele>579.3</ele>
        <time>2020-06-09T17:15:47Z</time>
      </trkpt>
      <trkpt lat="47.49389" lon="7.31731">
        <ele>578.9</ele>
        <time>2020-06-09T17:16:00Z</time>
      </trkpt>
      <trkpt lat="47.49381" lon="7.31738">
        <ele>577.3</ele>
        <time>2020-06-09T17:16:14Z</time>
      </trkpt>
      <trkpt lat="47.49363" lon="7.31743">
        <ele>572.3</ele>
        <time>2020-06-09T17:16:32Z</time>
      </trkpt>
      <trkpt lat="47.49365" lon="7.31733">
        <ele>568.7</ele>
        <time>2020-06-09T17:16:40Z</time>
      </trkpt>
      <trkpt lat="47.49373" lon="7.31719">
        <ele>566.6</ele>
        <time>2020-06-09T17:17:00Z</time>
      </trkpt>
      <trkpt lat="47.49394" lon="7.31699">
        <ele>563.5</ele>
        <time>2020-06-09T17:17:08Z</time>
      </trkpt>
      <trkpt lat="47.49398" lon="7.3169">
        <ele>559.7</ele>
        <time>2020-06-09T17:17:10Z</time>
      </trkpt>
      <trkpt lat="47.49405" lon="7.31679">
        <ele>557</ele>
        <time>2020-06-09T17:17:24Z</time>
      </trkpt>
      <trkpt lat="47.49463" lon="7.31593">
        <ele>539.9</ele>
        <time>2020-06-09T17:17:36Z</time>
      </trkpt>
      <trkpt lat="47.49473" lon="7.31569">
        <ele>534.5</ele>
        <time>2020-06-09T17:17:55Z</time>
      </trkpt>
      <trkpt lat="47.49486" lon="7.31547">
        <ele>532.6</ele>
        <time>2020-06-09T17:17:57Z</time>
      </trkpt>
      <trkpt lat="47.49485" lon="7.31539">
        <ele>527.9</ele>
        <time>2020-06-09T17:18:16Z</time>
      </trkpt>
      <trkpt lat="47.49497" lon="7.31528">
        <ele>528</ele>
        <time>2020-06-09T17:18:22Z</time>
      </trkpt>
      <trkpt lat="47.49525" lon="7.31487">
        <ele>517.2</ele>
        <time>2020-06-09T17:18:41Z</time>
      </trkpt>
      <trkpt lat="47.49534" lon="7.3147">
        <ele>511.7</ele>
        <time>2020-06-09T17:18:45Z</time>
      </trkpt>
      <trkpt lat="47.49536" lon="7.31452">
        <ele>506.5</ele>
        <time>2020-06-09T17:18:57Z</time>
      </trkpt>
      <trkpt lat="47.49511" lon="7.31464">
        <ele>503.6</ele>
        <time>2020-06-09T17:19:11Z</time>
      </trkpt>
      <trkpt lat="47.49489" lon="7.31466">
        <ele>501</ele>
        <time>2020-06-09T17:19:21Z</time>
      </trkpt>
      <trkpt lat="47.49478" lon="7.31462">
        <ele>499.6</ele>
        <time>2020-06-09T17:19:29Z</time>
      </trkpt>
      <trkpt lat="47.49444" lon="7.3145">
        <ele>495</ele>
        <time>2020-06-09T17:19:31Z</time>
      </trkpt>
      <trkpt lat="47.49434" lon="7.31412">
        <ele>490.7</ele>
        <time>2020-06-09T17:19:41Z</time>
      </trkpt>
      <trkpt lat="47.49434" lon="7.31401">
        <ele>490.1</ele>
        <time>2020-06-09T17:19:56Z</time>
      </trkpt>
      <trkpt lat="47.4943" lon="7.31399">
        <ele>490.1</ele>
        <time>2020-06-09T17:20:03Z</time>
      </trkpt>
      <trkpt lat="47.49424" lon="7.31379">
        <ele>489.6</ele>
        <time>2020-06-09T17:20:21Z</time>
      </trkpt>
      <trkpt lat="47.4942" lon="7.31376">
        <ele>489.8</ele>
        <time>2020-06-09T17:20:34Z</time>
      </trkpt>
      <trkpt lat="47.49426" lon="7.31355">
        <ele>490.3</ele>
        <time>2020-06-09T17:20:42Z</time>
      </trkpt>
      <trkpt lat="47.49433" lon="7.3134">
        <ele>492.2</ele>
        <time>2020-06-09T17:20:53Z</time>
      </trkpt>
      <trkpt lat="47.49445" lon="7.31325">
        <ele>493.5</ele>
        <time>2020-06-09T17:21:13Z</time>
      </trkpt>
      <trkpt lat="47.4953" lon="7.31244">
        <ele>502.5</ele>
        <time>2020-06-09T17:21:23Z</time>
      </trkpt>
      <trkpt lat="47.49526" lon="7.31214">
        <ele>513.5</ele>
        <time>2020-06-09T17:21:25Z</time>
      </trkpt>
      <trkpt lat="47.49492" lon="7.31222">
        <ele>521.8</ele>
        <time>2020-06-09T17:21:29Z</time>
      </trkpt>
      <trkpt lat="47.49483" lon="7.31215">
        <ele>528.4</ele>
        <time>2020-06-09T17:21:33Z</time>
      </trkpt>
      <trkpt lat="47.495" lon="7.31197">
        <ele>529.7</ele>
        <time>2020-06-09T17:21:36Z</time>
      </trkpt>
      <trkpt lat="47.4951" lon="7.31179">
        <ele>532.4</ele>
        <time>2020-06-09T17:21:39Z</time>
      </trkpt>
      <trkpt lat="47.49505" lon="7.31175">
        <ele>535.5</ele>
        <time>2020-06-09T17:21:48Z</time>
      </trkpt>
      <trkpt lat="47.49513" lon="7.31155">
        <ele>537.3</ele>
        <time>2020-06-09T17:22:07Z</time>
      </trkpt>
      <trkpt lat="47.49492" lon="7.31154">
        <ele>547.4</ele>
        <time>2020-06-09T17:22:16Z</time>
      </trkpt>
      <trkpt lat="47.49508" lon="7.30981">
        <ele>581.3</ele>
        <time>2020-06-09T17:22:19Z</time>
      </trkpt>
      <trkpt lat="47.49472" lon="7.30871">
        <ele>609.6</ele>
        <time>2020-06-09T17:22:23Z</time>
      </trkpt>
      <trkpt lat="47.49479" lon="7.30783">
        <ele>617.6</ele>
        <time>2020-06-09T17:22:40Z</time>
      </trkpt>
      <trkpt lat="47.49467" lon="7.30721">
        <ele>626.1</ele>
        <time>2020-06-09T17:22:56Z</time>
      </trkpt>
      <trkpt lat="47.49451" lon="7.30785">
        <ele>629.8</ele>
        <time>2020-06-09T17:23:13Z</time>
      </trkpt>
      <trkpt lat="47.49425" lon="7.30777">
        <ele>636.5</ele>
        <time>2020-06-09T17:23:30Z</time>
      </trkpt>
      <trkpt lat="47.49398" lon="7.30761">
        <ele>640.6</ele>
        <time>2020-06-09T17:23:45Z</time>
      </trkpt>
      <trkpt lat="47.49399" lon="7.30721">
        <ele>643.4</ele>
        <time>2020-06-09T17:23:57Z</time>
      </trkpt>
      <trkpt lat="47.49397" lon="7.30678">
        <ele>646.5</ele>
        <time>2020-06-09T17:24:15Z</time>
      </trkpt>
      <trkpt lat="47.49391" lon="7.30631">
        <ele>649</ele>
        <time>2020-06-09T17:24:28Z</time>
      </trkpt>
      <trkpt lat="47.49385" lon="7.30599">
        <ele>651.3</ele>
        <time>2020-06-09T17:24:34Z</time>
      </trkpt>
      <trkpt lat="47.49368" lon="7.30551">
        <ele>651.7</ele>
        <time>2020-06-09T17:24:41Z</time>
      </trkpt>
      <trkpt lat="47.49362" lon="7.30522">
        <ele>654</ele>
        <time>2020-06-09T17:24:51Z</time>
      </trkpt>
      <trkpt lat="47.49352" lon="7.30446">
        <ele>658.2</ele>
        <time>2020-06-09T17:25:06Z</time>
      </trkpt>
      <trkpt lat="47.49336" lon="7.30396">
        <ele>660.7</ele>
        <time>2020-06-09T17:25:13Z</time>
      </trkpt>
      <trkpt lat="47.49322" lon="7.30337">
        <ele>664.7</ele>
        <time>2020-06-09T17:25:23Z</time>
      </trkpt>
      <trkpt lat="47.49317" lon="7.30267">
        <ele>666</ele>
        <time>2020-06-09T17:25:25Z</time>
      </trkpt>
      <trkpt lat="47.49338" lon="7.30269">
        <ele>670.3</ele>
        <time>2020-06-09T17:25:37Z</time>
      </trkpt>
      <trkpt lat="47.49341" lon="7.30269">
        <ele>670.4</ele>
        <time>2020-06-09T17:25:50Z</time>
      </trkpt>
      <trkpt lat="47.49371" lon="7.3029">
        <ele>666.6</ele>
        <time>2020-06-09T17:25:59Z</time>
      </trkpt>
      <trkpt lat="47.49372" lon="7.30282">
        <ele>666.2</ele>
        <time>2020-06-09T17:26:14Z</time>
      </trkpt>
      <trkpt lat="47.4938" lon="7.30268">
        <ele>659.5</ele>
        <time>2020-06-09T17:26:30Z</time>
      </trkpt>
      <trkpt lat="47.49385" lon="7.3025">
        <ele>654.3</ele>
        <time>2020-06-09T17:26:34Z</time>
      </trkpt>
      <trkpt lat="47.49386" lon="7.3018">
        <ele>648</ele>
        <time>2020-06-09T17:26:46Z</time>
      </trkpt>
      <trkpt lat="47.49389" lon="7.3018">
        <ele>647.4</ele>
        <time>2020-06-09T17:26:53Z</time>
      </trkpt>
      <trkpt lat="47.49392" lon="7.30185">
        <ele>646.4</ele>
        <time>2020-06-09T17:27:01Z</time>
      </trkpt>
      <trkpt lat="47.49399" lon="7.30211">
        <ele>644.4</ele>
        <time>2020-06-09T17:27:13Z</time>
      </trkpt>
      <trkpt lat="47.49404" lon="7.30217">
        <ele>642.6</ele>
        <time>2020-06-09T17:27:31Z</time>
      </trkpt>
      <trkpt lat="47.49412" lon="7.30217">
        <ele>639.6</ele>
        <time>2020-06-09T17:27:42Z</time>
      </trkpt>
      <trkpt lat="47.49417" lon="7.3021">
        <ele>637.1</ele>
        <time>2020-06-09T17:27:50Z</time>
      </trkpt>
      <trkpt lat="47.49419" lon="7.30191">
        <ele>635.3</ele>
        <time>2020-06-09T17:28:06Z</time>
      </trkpt>
      <trkpt lat="47.49422" lon="7.30176">
        <ele>634.1</ele>
        <time>2020-06-09T17:28:23Z</time>
      </trkpt>
      <trkpt lat="47.49427" lon="7.30169">
        <ele>632.8</ele>
        <time>2020-06-09T17:28:36Z</time>
      </trkpt>
      <trkpt lat="47.49437" lon="7.30161">
        <ele>630.9</ele>
        <time>2020-06-09T17:28:46Z</time>
      </trkpt>
      <trkpt lat="47.49467" lon="7.30143">
        <ele>623.5</ele>
        <time>2020-06-09T17:28:59Z</time>
      </trkpt>
      <trkpt lat="47.49466" lon="7.30157">
        <ele>623.6</ele>
        <time>2020-06-09T17:29:12Z</time>
      </trkpt>
      <trkpt lat="47.49467" lon="7.30113">
        <ele>625.1</ele>
        <time>2020-06-09T17:29:27Z</time>
      </trkpt>
      <trkpt lat="47.49466" lon="7.30089">
        <ele>626.1</ele>
        <time>2020-06-09T17:29:31Z</time>
      </trkpt>
      <trkpt lat="47.49489" lon="7.30069">
        <ele>625.5</ele>
        <time>2020-06-09T17:29:51Z</time>
      </trkpt>
      <trkpt lat="47.4956" lon="7.29999">
        <ele>617.7</ele>
        <time>2020-06-09T17:29:57Z</time>
      </trkpt>
      <trkpt lat="47.49571" lon="7.29992">
        <ele>613.8</ele>
        <time>2020-06-09T17:30:08Z</time>
      </trkpt>
      <trkpt lat="47.49616" lon="7.29984">
        <ele>600.6</ele>
        <time>2020-06-09T17:30:17Z</time>
      </trkpt>
      <trkpt lat="47.49636" lon="7.29986">
        <ele>593.4</ele>
        <time>2020-06-09T17:30:31Z</time>
      </trkpt>
      <trkpt lat="47.49721" lon="7.30001">
        <ele>570.2</ele>
        <time>2020-06-09T17:30:40Z</time>
      </trkpt>
      <trkpt lat="47.49747" lon="7.30002">
        <ele>564.4</ele>
        <time>2020-06-09T17:30:47Z</time>
      </trkpt>
      <trkpt lat="47.49765" lon="7.29992">
        <ele>561.7</ele>
        <time>2020-06-09T17:31:07Z</time>
      </trkpt>
      <trkpt lat="47.4978" lon="7.29971">
        <ele>556.2</ele>
        <time>2020-06-09T17:31:19Z</time>
      </trkpt>
      <trkpt lat="47.49728" lon="7.29915">
        <ele>550.9</ele>
        <time>2020-06-09T17:31:37Z</time>
      </trkpt>
      <trkpt lat="47.49688" lon="7.29837">
        <ele>539.2</ele>
        <time>2020-06-09T17:31:39Z</time>
      </trkpt>
      <trkpt lat="47.49688" lon="7.29825">
        <ele>537.7</ele>
        <time>2020-06-09T17:31:44Z</time>
      </trkpt>
      <trkpt lat="47.49693" lon="7.29804">
        <ele>535.5</ele>
        <time>2020-06-09T17:31:50Z</time>
      </trkpt>
      <trkpt lat="47.49702" lon="7.29809">
        <ele>534.1</ele>
        <time>2020-06-09T17:31:55Z</time>
      </trkpt>
      <trkpt lat="47.49735" lon="7.2983">
        <ele>529.2</ele>
        <time>2020-06-09T17:32:13Z</time>
      </trkpt>
      <trkpt lat="47.4975" lon="7.29814">
        <ele>527.7</ele>
        <time>2020-06-09T17:32:22Z</time>
      </trkpt>
      <trkpt lat="47.49834" lon="7.29785">
        <ele>518</ele>
        <time>2020-06-09T17:32:30Z</time>
      </trkpt>
      <trkpt lat="47.49861" lon="7.29763">
        <ele>515.7</ele>
        <time>2020-06-09T17:32:32Z</time>
      </trkpt>
      <trkpt lat="47.49879" lon="7.29737">
        <ele>514</ele>
        <time>2020-06-09T17:32:35Z</time>
      </trkpt>
      <trkpt lat="47.49905" lon="7.29684">
        <ele>512.8</ele>
        <time>2020-06-09T17:32:51Z</time>
      </trkpt>
      <trkpt lat="47.49929" lon="7.29659">
        <ele>511.5</ele>
        <time>2020-06-09T17:33:01Z</time>
      </trkpt>
      <trkpt lat="47.49967" lon="7.29719">
        <ele>500.3</ele>
        <time>2020-06-09T17:33:06Z</time>
      </trkpt>
      <trkpt lat="47.49976" lon="7.29728">
        <ele>498.9</ele>
        <time>2020-06-09T17:33:17Z</time>
      </trkpt>
      <trkpt lat="47.50001" lon="7.29745">
        <ele>496.8</ele>
        <time>2020-06-09T17:33:21Z</time>
      </trkpt>
      <trkpt lat="47.50031" lon="7.29761">
        <ele>493.7</ele>
        <time>2020-06-09T17:33:32Z</time>
      </trkpt>
      <trkpt lat="47.50028" lon="7.29766">
        <ele>494</ele>
        <time>2020-06-09T17:33:44Z</time>
      </trkpt>
      <trkpt lat="47.50031" lon="7.29761">
        <ele>493.7</ele>
        <time>2020-06-09T17:34:00Z</time>
      </trkpt>
      <trkpt lat="47.50043" lon="7.29769">
        <ele>492.9</ele>
        <time>2020-06-09T17:34:12Z</time>
      </trkpt>
      <trkpt lat="47.50058" lon="7.2974">
        <ele>492.6</ele>
        <time>2020-06-09T17:34:30Z</time>
      </trkpt>
      <trkpt lat="47.50076" lon="7.2972">
        <ele>492</ele>
        <time>2020-06-09T17:34:32Z</time>
      </trkpt>
      <trkpt lat="47.5009" lon="7.2971">
        <ele>491.3</ele>
        <time>2020-06-09T17:34:52Z</time>
      </trkpt>
      <trkpt lat="47.50112" lon="7.29688">
        <ele>490.6</ele>
        <time>2020-06-09T17:35:00Z</time>
      </trkpt>
      <trkpt lat="47.50152" lon="7.29651">
        <ele>489.6</ele>
        <time>2020-06-09T17:35:19Z</time>
      </trkpt>
      <trkpt lat="47.50197" lon="7.29622">
        <ele>486.2</ele>
        <time>2020-06-09T17:35:32Z</time>
      </trkpt>
      <trkpt lat="47.50265" lon="7.29565">
        <ele>481.4</ele>
        <time>2020-06-09T17:35:39Z</time>
      </trkpt>
      <trkpt lat="47.50334" lon="7.29449">
        <ele>478.7</ele>
        <time>2020-06-09T17:35:53Z</time>
      </trkpt>
      <trkpt lat="47.50344" lon="7.29349">
        <ele>485.9</ele>
        <time>2020-06-09T17:36:06Z</time>
      </trkpt>
      <trkpt lat="47.50354" lon="7.29283">
        <ele>489.1</ele>
        <time>2020-06-09T17:36:09Z</time>
      </trkpt>
      <trkpt lat="47.50356" lon="7.29083">
        <ele>498.4</ele>
        <time>2020-06-09T17:36:23Z</time>
      </trkpt>
      <trkpt lat="47.50355" lon="7.29053">
        <ele>498.4</ele>
        <time>2020-06-09T17:36:30Z</time>
      </trkpt>
      <trkpt lat="47.50344" lon="7.2898">
        <ele>498.4</ele>
        <time>2020-06-09T17:36:37Z</time>
      </trkpt>
      <trkpt lat="47.50322" lon="7.28898">
        <ele>499.9</ele>
        <time>2020-06-09T17:36:53Z</time>
      </trkpt>
      <trkpt lat="47.50309" lon="7.28855">
        <ele>500.7</ele>
        <time>2020-06-09T17:37:03Z</time>
      </trkpt>
      <trkpt lat="47.50296" lon="7.28804">
        <ele>502.7</ele>
        <time>2020-06-09T17:37:14Z</time>
      </trkpt>
      <trkpt lat="47.50287" lon="7.28778">
        <ele>503.7</ele>
        <time>2020-06-09T17:37:31Z</time>
      </trkpt>
      <trkpt lat="47.50282" lon="7.28753">
        <ele>508.4</ele>
        <time>2020-06-09T17:37:51Z</time>
      </trkpt>
      <trkpt lat="47.50288" lon="7.28727">
        <ele>512.6</ele>
        <time>2020-06-09T17:38:06Z</time>
      </trkpt>
      <trkpt lat="47.50315" lon="7.28667">
        <ele>518.8</ele>
        <time>2020-06-09T17:38:25Z</time>
      </trkpt>
      <trkpt lat="47.50342" lon="7.2857">
        <ele>525.8</ele>
        <time>2020-06-09T17:38:28Z</time>
      </trkpt>
      <trkpt lat="47.50358" lon="7.28479">
        <ele>533.1</ele>
        <time>2020-06-09T17:38:35Z</time>
      </trkpt>
      <trkpt lat="47.50364" lon="7.28428">
        <ele>535.9</ele>
        <time>2020-06-09T17:38:37Z</time>
      </trkpt>
      <trkpt lat="47.50359" lon="7.28373">
        <ele>539.5</ele>
        <time>2020-06-09T17:38:41Z</time>
      </trkpt>
      <trkpt lat="47.50345" lon="7.28323">
        <ele>542.6</ele>
        <time>2020-06-09T17:38:54Z</time>
      </trkpt>
      <trkpt lat="47.50322" lon="7.28282">
        <ele>544.4</ele>
        <time>2020-06-09T17:39:04Z</time>
      </trkpt>
      <trkpt lat="47.50315" lon="7.28268">
        <ele>544.2</ele>
        <time>2020-06-09T17:39:21Z</time>
      </trkpt>
      <trkpt lat="47.50302" lon="7.28251">
        <ele>544.6</ele>
        <time>2020-06-09T17:39:35Z</time>
      </trkpt>
      <trkpt lat="47.50318" lon="7.28231">
        <ele>541.3</ele>
        <time>2020-06-09T17:39:42Z</time>
      </trkpt>
      <trkpt lat="47.50327" lon="7.28195">
        <ele>538</ele>
        <time>2020-06-09T17:39:52Z</time>
      </trkpt>
      <trkpt lat="47.50338" lon="7.28134">
        <ele>534.5</ele>
        <time>2020-06-09T17:40:06Z</time>
      </trkpt>
      <trkpt lat="47.50348" lon="7.27968">
        <ele>516.5</ele>
        <time>2020-06-09T17:40:20Z</time>
      </trkpt>
      <trkpt lat="47.50347" lon="7.27912">
        <ele>511.1</ele>
        <time>2020-06-09T17:40:29Z</time>
      </trkpt>
      <trkpt lat="47.5034" lon="7.27836">
        <ele>500.9</ele>
        <time>2020-06-09T17:40:34Z</time>
      </trkpt>
      <trkpt lat="47.5034" lon="7.27813">
        <ele>498.3</ele>
        <time>2020-06-09T17:40:48Z</time>
      </trkpt>
      <trkpt lat="47.50342" lon="7.27795">
        <ele>496.6</ele>
        <time>2020-06-09T17:41:06Z</time>
      </trkpt>
      <trkpt lat="47.50366" lon="7.27793">
        <ele>494.8</ele>
        <time>2020-06-09T17:41:26Z</time>
      </trkpt>
      <trkpt lat="47.50378" lon="7.27803">
        <ele>494.6</ele>
        <time>2020-06-09T17:41:45Z</time>
      </trkpt>
      <trkpt lat="47.50411" lon="7.27813">
        <ele>493.7</ele>
        <time>2020-06-09T17:41:49Z</time>
      </trkpt>
      <trkpt lat="47.50449" lon="7.27817">
        <ele>492.5</ele>
        <time>2020-06-09T17:41:57Z</time>
      </trkpt>
      <trkpt lat="47.50469" lon="7.27821">
        <ele>491.4</ele>
        <time>2020-06-09T17:42:02Z</time>
      </trkpt>
      <trkpt lat="47.50504" lon="7.2784">
        <ele>487.7</ele>
        <time>2020-06-09T17:42:05Z</time>
      </trkpt>
      <trkpt lat="47.50533" lon="7.27843">
        <ele>483.8</ele>
        <time>2020-06-09T17:42:21Z</time>
      </trkpt>
      <trkpt lat="47.50549" lon="7.27863">
        <ele>482.2</ele>
        <time>2020-06-09T17:42:38Z</time>
      </trkpt>
      <trkpt lat="47.50575" lon="7.27929">
        <ele>481.1</ele>
        <time>2020-06-09T17:42:53Z</time>
      </trkpt>
      <trkpt lat="47.5058" lon="7.2795">
        <ele>480.4</ele>
        <time>2020-06-09T17:43:01Z</time>
      </trkpt>
      <trkpt lat="47.50585" lon="7.27991">
        <ele>477.9</ele>
        <time>2020-06-09T17:43:08Z</time>
      </trkpt>
      <trkpt lat="47.50591" lon="7.27998">
        <ele>477.5</ele>
        <time>2020-06-09T17:43:12Z</time>
      </trkpt>
      <trkpt lat="47.50603" lon="7.28">
        <ele>476.6</ele>
        <time>2020-06-09T17:43:17Z</time>
      </trkpt>
      <trkpt lat="47.50603" lon="7.2799">
        <ele>476.6</ele>
        <time>2020-06-09T17:43:31Z</time>
      </trkpt>
    </trkseg>
  </trk>
</gpx>